sensor_id;sensor_type;location;lat;lon;timestamp;pressure;altitude;pressure_sealevel;temperature;humidity
73633;BME280;61927;50.080;14.418;2023-03-04T00:01:53;99870.47;;;0.25;72.07
73633;BME280;61927;50.080;14.418;2023-03-04T00:04:19;99868.78;;;0.22;72.07
73633;BME280;61927;50.080;14.418;2023-03-04T00:06:44;99866.31;;;0.12;71.88
73633;BME280;61927;50.080;14.418;2023-03-04T00:09:10;99870.66;;;0.11;71.97
73633;BME280;61927;50.080;14.418;2023-03-04T00:11:36;99856.81;;;0.06;71.89
73633;BME280;61927;50.080;14.418;2023-03-04T00:14:01;99860.25;;;0.10;72.47
73633;BME280;61927;50.080;14.418;2023-03-04T00:16:27;99863.66;;;0.15;72.25
73633;BME280;61927;50.080;14.418;2023-03-04T00:18:54;99855.00;;;0.11;72.35
73633;BME280;61927;50.080;14.418;2023-03-04T00:21:20;99855.91;;;0.09;72.55
73633;BME280;61927;50.080;14.418;2023-03-04T00:23:46;99855.91;;;0.10;72.32
73633;BME280;61927;50.080;14.418;2023-03-04T00:26:12;99857.56;;;0.16;71.86
73633;BME280;61927;50.080;14.418;2023-03-04T00:28:38;99854.97;;;0.14;72.14
73633;BME280;61927;50.080;14.418;2023-03-04T00:31:05;99861.09;;;0.12;72.13
73633;BME280;61927;50.080;14.418;2023-03-04T00:33:31;99857.59;;;0.13;72.10
73633;BME280;61927;50.080;14.418;2023-03-04T00:35:56;99857.59;;;0.13;72.35
73633;BME280;61927;50.080;14.418;2023-03-04T00:38:22;99856.75;;;0.12;71.75
73633;BME280;61927;50.080;14.418;2023-03-04T00:40:48;99860.16;;;0.16;72.16
73633;BME280;61927;50.080;14.418;2023-03-04T00:43:13;99850.59;;;0.16;72.00
73633;BME280;61927;50.080;14.418;2023-03-04T00:45:39;99850.63;;;0.15;71.94
73633;BME280;61927;50.080;14.418;2023-03-04T00:48:05;99856.53;;;0.27;71.31
73633;BME280;61927;50.080;14.418;2023-03-04T00:50:30;99856.50;;;0.30;71.27
73633;BME280;61927;50.080;14.418;2023-03-04T00:52:56;99857.41;;;0.26;70.83
73633;BME280;61927;50.080;14.418;2023-03-04T00:55:22;99851.44;;;0.18;71.70
73633;BME280;61927;50.080;14.418;2023-03-04T00:57:47;99848.91;;;0.12;71.77
73633;BME280;61927;50.080;14.418;2023-03-04T01:00:13;99850.66;;;0.12;71.60
73633;BME280;61927;50.080;14.418;2023-03-04T01:02:39;99846.28;;;0.14;71.89
73633;BME280;61927;50.080;14.418;2023-03-04T01:05:06;99841.03;;;0.17;71.25
73633;BME280;61927;50.080;14.418;2023-03-04T01:07:31;99834.97;;;0.13;71.79
73633;BME280;61927;50.080;14.418;2023-03-04T01:09:57;99834.09;;;0.14;71.20
73633;BME280;61927;50.080;14.418;2023-03-04T01:12:23;99830.59;;;0.17;71.32
73633;BME280;61927;50.080;14.418;2023-03-04T01:14:48;99828.03;;;0.12;71.61
73633;BME280;61927;50.080;14.418;2023-03-04T01:17:14;99828.94;;;0.10;71.86
73633;BME280;61927;50.080;14.418;2023-03-04T01:19:40;99817.63;;;0.09;71.68
73633;BME280;61927;50.080;14.418;2023-03-04T01:22:05;99820.28;;;0.06;71.73
73633;BME280;61927;50.080;14.418;2023-03-04T01:24:31;99814.25;;;0.03;71.61
73633;BME280;61927;50.080;14.418;2023-03-04T01:26:57;99817.72;;;0.03;71.27
73633;BME280;61927;50.080;14.418;2023-03-04T01:29:22;99810.81;;;0.01;71.65
73633;BME280;61927;50.080;14.418;2023-03-04T01:31:48;99808.19;;;0.01;71.51
73633;BME280;61927;50.080;14.418;2023-03-04T01:34:14;99804.75;;;-0.02;72.05
73633;BME280;61927;50.080;14.418;2023-03-04T01:36:39;99798.63;;;-0.01;71.87
73633;BME280;61927;50.080;14.418;2023-03-04T01:39:05;99811.72;;;-0.02;71.63
73633;BME280;61927;50.080;14.418;2023-03-04T01:41:30;99802.19;;;-0.06;71.53
73633;BME280;61927;50.080;14.418;2023-03-04T01:43:58;99798.69;;;-0.05;71.08
73633;BME280;61927;50.080;14.418;2023-03-04T01:46:28;99794.38;;;-0.08;71.09
73633;BME280;61927;50.080;14.418;2023-03-04T01:48:54;99790.13;;;-0.13;71.26
73633;BME280;61927;50.080;14.418;2023-03-04T01:51:20;99784.97;;;-0.19;71.61
73633;BME280;61927;50.080;14.418;2023-03-04T01:53:48;99778.09;;;-0.23;71.57
73633;BME280;61927;50.080;14.418;2023-03-04T01:56:24;99778.97;;;-0.24;71.33
73633;BME280;61927;50.080;14.418;2023-03-04T01:59:11;99775.53;;;-0.28;71.79
73633;BME280;61927;50.080;14.418;2023-03-04T02:01:37;99772.03;;;-0.25;71.78
73633;BME280;61927;50.080;14.418;2023-03-04T02:04:04;99767.66;;;-0.25;71.90
73633;BME280;61927;50.080;14.418;2023-03-04T02:06:30;99769.41;;;-0.25;71.91
73633;BME280;61927;50.080;14.418;2023-03-04T02:08:56;99761.63;;;-0.28;71.95
73633;BME280;61927;50.080;14.418;2023-03-04T02:11:22;99762.50;;;-0.28;71.18
73633;BME280;61927;50.080;14.418;2023-03-04T02:13:48;99763.41;;;-0.32;71.94
73633;BME280;61927;50.080;14.418;2023-03-04T02:16:14;99752.09;;;-0.31;71.74
73633;BME280;61927;50.080;14.418;2023-03-04T02:18:39;99749.53;;;-0.34;71.46
73633;BME280;61927;50.080;14.418;2023-03-04T02:21:17;99748.75;;;-0.39;72.42
73633;BME280;61927;50.080;14.418;2023-03-04T02:26:28;99741.84;;;-0.45;72.11
73633;BME280;61927;50.080;14.418;2023-03-04T02:28:56;99743.56;;;-0.42;72.42
73633;BME280;61927;50.080;14.418;2023-03-04T02:31:40;99741.78;;;-0.40;71.59
73633;BME280;61927;50.080;14.418;2023-03-04T02:34:13;99741.81;;;-0.42;71.79
73633;BME280;61927;50.080;14.418;2023-03-04T02:36:41;99731.41;;;-0.43;72.26
73633;BME280;61927;50.080;14.418;2023-03-04T02:41:46;99724.38;;;-0.37;71.57
73633;BME280;61927;50.080;14.418;2023-03-04T02:44:25;99723.50;;;-0.37;71.36
73633;BME280;61927;50.080;14.418;2023-03-04T02:46:52;99726.22;;;-0.46;71.37
73633;BME280;61927;50.080;14.418;2023-03-04T02:49:18;99720.31;;;-0.59;72.25
73633;BME280;61927;50.080;14.418;2023-03-04T02:51:44;99723.81;;;-0.61;72.34
73633;BME280;61927;50.080;14.418;2023-03-04T02:54:18;99716.88;;;-0.61;72.31
73633;BME280;61927;50.080;14.418;2023-03-04T02:56:48;99721.13;;;-0.54;72.07
73633;BME280;61927;50.080;14.418;2023-03-04T02:59:14;99720.34;;;-0.60;72.04
73633;BME280;61927;50.080;14.418;2023-03-04T03:01:39;99718.66;;;-0.64;72.15
73633;BME280;61927;50.080;14.418;2023-03-04T03:04:05;99722.13;;;-0.66;72.43
73633;BME280;61927;50.080;14.418;2023-03-04T03:06:31;99726.56;;;-0.74;72.11
73633;BME280;61927;50.080;14.418;2023-03-04T03:08:56;99720.59;;;-0.82;72.24
73633;BME280;61927;50.080;14.418;2023-03-04T03:11:22;99715.47;;;-0.89;72.81
73633;BME280;61927;50.080;14.418;2023-03-04T03:13:47;99723.31;;;-0.91;72.62
73633;BME280;61927;50.080;14.418;2023-03-04T03:16:13;99717.28;;;-0.96;72.63
73633;BME280;61927;50.080;14.418;2023-03-04T03:18:39;99723.41;;;-1.02;73.30
73633;BME280;61927;50.080;14.418;2023-03-04T03:21:05;99718.25;;;-1.05;72.85
73633;BME280;61927;50.080;14.418;2023-03-04T03:23:31;99719.16;;;-1.09;73.20
73633;BME280;61927;50.080;14.418;2023-03-04T03:25:57;99720.03;;;-1.10;73.38
73633;BME280;61927;50.080;14.418;2023-03-04T03:28:23;99715.72;;;-1.12;73.17
73633;BME280;61927;50.080;14.418;2023-03-04T03:30:48;99720.06;;;-1.13;73.18
73633;BME280;61927;50.080;14.418;2023-03-04T03:33:14;99720.09;;;-1.16;73.06
73633;BME280;61927;50.080;14.418;2023-03-04T03:35:39;99712.31;;;-1.19;73.41
73633;BME280;61927;50.080;14.418;2023-03-04T03:38:05;99714.97;;;-1.22;73.10
73633;BME280;61927;50.080;14.418;2023-03-04T03:40:31;99711.47;;;-1.21;73.37
73633;BME280;61927;50.080;14.418;2023-03-04T03:42:57;99708.88;;;-1.21;72.89
73633;BME280;61927;50.080;14.418;2023-03-04T03:45:22;99701.91;;;-1.19;73.03
73633;BME280;61927;50.080;14.418;2023-03-04T03:47:48;99703.66;;;-1.19;72.71
73633;BME280;61927;50.080;14.418;2023-03-04T03:50:13;99701.94;;;-1.22;73.10
73633;BME280;61927;50.080;14.418;2023-03-04T03:52:39;99696.75;;;-1.25;72.88
73633;BME280;61927;50.080;14.418;2023-03-04T03:55:05;99698.50;;;-1.25;72.81
73633;BME280;61927;50.080;14.418;2023-03-04T03:57:31;99694.16;;;-1.25;72.88
73633;BME280;61927;50.080;14.418;2023-03-04T03:59:56;99696.81;;;-1.29;73.07
73633;BME280;61927;50.080;14.418;2023-03-04T04:02:22;99695.94;;;-1.30;72.77
73633;BME280;61927;50.080;14.418;2023-03-04T04:04:48;99697.72;;;-1.35;73.27
73633;BME280;61927;50.080;14.418;2023-03-04T04:07:14;99696.00;;;-1.36;73.41
73633;BME280;61927;50.080;14.418;2023-03-04T04:09:39;99702.06;;;-1.36;73.38
73633;BME280;61927;50.080;14.418;2023-03-04T04:12:05;99700.34;;;-1.37;73.30
73633;BME280;61927;50.080;14.418;2023-03-04T04:14:31;99702.06;;;-1.34;73.14
73633;BME280;61927;50.080;14.418;2023-03-04T04:16:57;99706.41;;;-1.36;73.17
73633;BME280;61927;50.080;14.418;2023-03-04T04:19:23;99706.41;;;-1.36;73.03
73633;BME280;61927;50.080;14.418;2023-03-04T04:21:49;99708.13;;;-1.34;72.96
73633;BME280;61927;50.080;14.418;2023-03-04T04:24:14;99708.06;;;-1.27;72.98
73633;BME280;61927;50.080;14.418;2023-03-04T04:26:40;99705.44;;;-1.26;72.62
73633;BME280;61927;50.080;14.418;2023-03-04T04:29:07;99701.06;;;-1.21;72.71
73633;BME280;61927;50.080;14.418;2023-03-04T04:31:33;99709.69;;;-1.17;72.14
73633;BME280;61927;50.080;14.418;2023-03-04T04:33:59;99694.88;;;-1.12;72.53
73633;BME280;61927;50.080;14.418;2023-03-04T04:36:24;99704.38;;;-1.07;71.68
73633;BME280;61927;50.080;14.418;2023-03-04T04:38:51;99699.13;;;-1.04;71.85
73633;BME280;61927;50.080;14.418;2023-03-04T04:41:20;99696.50;;;-1.02;71.80
73633;BME280;61927;50.080;14.418;2023-03-04T04:43:46;99696.53;;;-1.05;71.60
73633;BME280;61927;50.080;14.418;2023-03-04T04:46:13;99702.75;;;-1.15;72.19
73633;BME280;61927;50.080;14.418;2023-03-04T04:48:39;99695.00;;;-1.21;72.46
73633;BME280;61927;50.080;14.418;2023-03-04T04:51:05;99693.25;;;-1.21;72.69
73633;BME280;61927;50.080;14.418;2023-03-04T04:53:30;99688.00;;;-1.18;72.78
73633;BME280;61927;50.080;14.418;2023-03-04T04:55:56;99689.75;;;-1.20;72.89
73633;BME280;61927;50.080;14.418;2023-03-04T04:58:22;99694.09;;;-1.19;72.77
73633;BME280;61927;50.080;14.418;2023-03-04T05:00:47;99691.56;;;-1.25;73.26
73633;BME280;61927;50.080;14.418;2023-03-04T05:03:13;99688.13;;;-1.28;73.22
73633;BME280;61927;50.080;14.418;2023-03-04T05:05:39;99687.25;;;-1.29;73.32
73633;BME280;61927;50.080;14.418;2023-03-04T05:08:04;99695.03;;;-1.26;72.85
73633;BME280;61927;50.080;14.418;2023-03-04T05:10:33;99686.31;;;-1.20;72.72
73633;BME280;61927;50.080;14.418;2023-03-04T05:12:58;99689.75;;;-1.18;72.42
73633;BME280;61927;50.080;14.418;2023-03-04T05:15:24;99696.63;;;-1.13;72.62
73633;BME280;61927;50.080;14.418;2023-03-04T05:17:49;99697.44;;;-1.08;71.87
73633;BME280;61927;50.080;14.418;2023-03-04T05:20:15;99698.28;;;-1.06;71.91
73633;BME280;61927;50.080;14.418;2023-03-04T05:22:41;99709.56;;;-1.04;71.66
73633;BME280;61927;50.080;14.418;2023-03-04T05:25:07;99708.75;;;-1.10;71.45
73633;BME280;61927;50.080;14.418;2023-03-04T05:27:33;99710.53;;;-1.15;71.06
73633;BME280;61927;50.080;14.418;2023-03-04T05:29:58;99709.78;;;-1.26;71.71
73633;BME280;61927;50.080;14.418;2023-03-04T05:32:24;99713.28;;;-1.29;72.30
73633;BME280;61927;50.080;14.418;2023-03-04T05:34:50;99708.03;;;-1.24;71.61
73633;BME280;61927;50.080;14.418;2023-03-04T05:37:15;99710.63;;;-1.24;71.96
73633;BME280;61927;50.080;14.418;2023-03-04T05:39:41;99716.69;;;-1.22;72.01
73633;BME280;61927;50.080;14.418;2023-03-04T05:42:06;99707.97;;;-1.18;72.34
73633;BME280;61927;50.080;14.418;2023-03-04T05:44:32;99709.44;;;-0.94;71.09
73633;BME280;61927;50.080;14.418;2023-03-04T05:46:57;99713.72;;;-0.89;70.48
73633;BME280;61927;50.080;14.418;2023-03-04T05:49:23;99712.06;;;-0.96;71.23
73633;BME280;61927;50.080;14.418;2023-03-04T05:51:49;99719.09;;;-1.03;70.65
73633;BME280;61927;50.080;14.418;2023-03-04T05:54:14;99714.78;;;-1.07;71.28
73633;BME280;61927;50.080;14.418;2023-03-04T05:56:40;99720.91;;;-1.11;71.45
73633;BME280;61927;50.080;14.418;2023-03-04T05:59:06;99725.28;;;-1.13;71.02
73633;BME280;61927;50.080;14.418;2023-03-04T06:01:31;99725.31;;;-1.16;71.55
73633;BME280;61927;50.080;14.418;2023-03-04T06:03:57;99722.66;;;-1.11;71.37
73633;BME280;61927;50.080;14.418;2023-03-04T06:06:23;99730.41;;;-1.05;71.04
73633;BME280;61927;50.080;14.418;2023-03-04T06:08:48;99728.63;;;-1.00;71.13
73633;BME280;61927;50.080;14.418;2023-03-04T06:11:14;99731.22;;;-1.00;70.99
73633;BME280;61927;50.080;14.418;2023-03-04T06:13:40;99735.50;;;-0.94;70.60
73633;BME280;61927;50.080;14.418;2023-03-04T06:16:05;99732.00;;;-0.93;70.33
73633;BME280;61927;50.080;14.418;2023-03-04T06:18:31;99732.84;;;-0.91;70.55
73633;BME280;61927;50.080;14.418;2023-03-04T06:20:58;99741.56;;;-0.94;70.19
73633;BME280;61927;50.080;14.418;2023-03-04T06:23:25;99749.34;;;-0.91;70.38
73633;BME280;61927;50.080;14.418;2023-03-04T06:25:55;99744.09;;;-0.88;70.27
73633;BME280;61927;50.080;14.418;2023-03-04T06:28:21;99742.28;;;-0.80;69.81
73633;BME280;61927;50.080;14.418;2023-03-04T06:30:47;99739.56;;;-0.71;69.46
73633;BME280;61927;50.080;14.418;2023-03-04T06:33:13;99749.06;;;-0.67;69.50
73633;BME280;61927;50.080;14.418;2023-03-04T06:35:38;99746.41;;;-0.62;69.60
73633;BME280;61927;50.080;14.418;2023-03-04T06:38:04;99748.13;;;-0.61;69.26
73633;BME280;61927;50.080;14.418;2023-03-04T06:40:30;99749.84;;;-0.58;68.87
73633;BME280;61927;50.080;14.418;2023-03-04T06:42:55;99755.81;;;-0.50;69.05
73633;BME280;61927;50.080;14.418;2023-03-04T06:45:21;99753.19;;;-0.47;68.45
73633;BME280;61927;50.080;14.418;2023-03-04T06:47:46;99753.88;;;-0.33;68.42
73633;BME280;61927;50.080;14.418;2023-03-04T06:50:12;99759.03;;;-0.30;67.77
73633;BME280;61927;50.080;14.418;2023-03-04T06:52:39;99758.25;;;-0.35;67.58
73633;BME280;61927;50.080;14.418;2023-03-04T06:55:05;99760.84;;;-0.35;68.32
73633;BME280;61927;50.080;14.418;2023-03-04T06:57:31;99759.09;;;-0.33;68.35
73633;BME280;61927;50.080;14.418;2023-03-04T06:59:56;99755.50;;;-0.26;67.79
73633;BME280;61927;50.080;14.418;2023-03-04T07:02:22;99765.88;;;-0.20;68.01
73633;BME280;61927;50.080;14.418;2023-03-04T07:04:48;99752.66;;;-0.08;68.06
73633;BME280;61927;50.080;14.418;2023-03-04T07:07:14;99761.16;;;0.07;67.23
73633;BME280;61927;50.080;14.418;2023-03-04T07:09:39;99754.09;;;0.13;67.56
73633;BME280;61927;50.080;14.418;2023-03-04T07:12:05;99753.94;;;0.24;67.22
73633;BME280;61927;50.080;14.418;2023-03-04T07:14:31;99753.03;;;0.25;66.83
73633;BME280;61927;50.080;14.418;2023-03-04T07:16:57;99753.84;;;0.28;67.49
73633;BME280;61927;50.080;14.418;2023-03-04T07:19:22;99758.97;;;0.35;67.23
73633;BME280;61927;50.080;14.418;2023-03-04T07:21:48;99754.50;;;0.43;66.38
73633;BME280;61927;50.080;14.418;2023-03-04T07:24:14;99757.00;;;0.49;66.36
73633;BME280;61927;50.080;14.418;2023-03-04T07:26:40;99756.22;;;0.44;66.41
73633;BME280;61927;50.080;14.418;2023-03-04T07:29:06;99750.94;;;0.48;66.51
73633;BME280;61927;50.080;14.418;2023-03-04T07:31:33;99754.38;;;0.50;66.29
73633;BME280;61927;50.080;14.418;2023-03-04T07:34:01;99743.97;;;0.49;66.56
73633;BME280;61927;50.080;14.418;2023-03-04T07:36:28;99745.72;;;0.48;65.97
73633;BME280;61927;50.080;14.418;2023-03-04T07:38:53;99750.06;;;0.48;66.39
73633;BME280;61927;50.080;14.418;2023-03-04T07:41:21;99747.47;;;0.48;66.89
73633;BME280;61927;50.080;14.418;2023-03-04T07:43:47;99738.84;;;0.43;66.72
73633;BME280;61927;50.080;14.418;2023-03-04T07:46:13;99739.63;;;0.48;67.18
73633;BME280;61927;50.080;14.418;2023-03-04T07:48:39;99736.09;;;0.52;67.47
73633;BME280;61927;50.080;14.418;2023-03-04T07:51:09;99731.53;;;0.63;66.66
73633;BME280;61927;50.080;14.418;2023-03-04T07:53:35;99734.91;;;0.70;66.78
73633;BME280;61927;50.080;14.418;2023-03-04T07:56:02;99748.53;;;0.87;66.38
73633;BME280;61927;50.080;14.418;2023-03-04T07:58:27;99737.81;;;1.02;66.24
73633;BME280;61927;50.080;14.418;2023-03-04T08:00:53;99737.41;;;1.22;65.67
73633;BME280;61927;50.080;14.418;2023-03-04T08:03:18;99743.97;;;1.43;65.17
73633;BME280;61927;50.080;14.418;2023-03-04T08:05:44;99742.81;;;1.57;64.83
73633;BME280;61927;50.080;14.418;2023-03-04T08:08:10;99740.63;;;1.78;64.19
73633;BME280;61927;50.080;14.418;2023-03-04T08:10:36;99739.44;;;1.92;62.95
73633;BME280;61927;50.080;14.418;2023-03-04T08:13:05;99744.59;;;1.96;62.89
73633;BME280;61927;50.080;14.418;2023-03-04T08:15:30;99744.50;;;2.00;63.22
73633;BME280;61927;50.080;14.418;2023-03-04T08:17:57;99743.50;;;2.06;62.55
73633;BME280;61927;50.080;14.418;2023-03-04T08:20:23;99736.19;;;2.20;62.31
73633;BME280;61927;50.080;14.418;2023-03-04T08:22:50;99734.28;;;2.26;61.76
73633;BME280;61927;50.080;14.418;2023-03-04T08:25:16;99738.25;;;2.43;60.75
73633;BME280;61927;50.080;14.418;2023-03-04T08:27:41;99736.56;;;2.40;61.26
73633;BME280;61927;50.080;14.418;2023-03-04T08:30:08;99741.81;;;2.40;60.73
73633;BME280;61927;50.080;14.418;2023-03-04T08:32:33;99740.69;;;2.50;61.06
73633;BME280;61927;50.080;14.418;2023-03-04T08:35:00;99737.91;;;2.56;60.54
73633;BME280;61927;50.080;14.418;2023-03-04T08:37:28;99742.19;;;2.61;60.16
73633;BME280;61927;50.080;14.418;2023-03-04T08:39:54;99742.97;;;2.64;60.79
73633;BME280;61927;50.080;14.418;2023-03-04T08:42:19;99741.25;;;2.63;60.25
73633;BME280;61927;50.080;14.418;2023-03-04T08:44:45;99742.34;;;2.54;60.66
73633;BME280;61927;50.080;14.418;2023-03-04T08:47:10;99739.66;;;2.56;61.01
73633;BME280;61927;50.080;14.418;2023-03-04T08:49:36;99732.22;;;2.75;60.45
73633;BME280;61927;50.080;14.418;2023-03-04T08:52:02;99731.16;;;2.82;60.11
73633;BME280;61927;50.080;14.418;2023-03-04T08:54:28;99728.16;;;2.96;59.94
73633;BME280;61927;50.080;14.418;2023-03-04T08:56:53;99721.91;;;3.01;59.92
73633;BME280;61927;50.080;14.418;2023-03-04T08:59:20;99721.03;;;3.01;59.80
73633;BME280;61927;50.080;14.418;2023-03-04T09:01:45;99730.50;;;3.06;59.58
73633;BME280;61927;50.080;14.418;2023-03-04T09:04:11;99724.19;;;3.13;59.63
73633;BME280;61927;50.080;14.418;2023-03-04T09:06:36;99721.75;;;3.07;59.49
73633;BME280;61927;50.080;14.418;2023-03-04T09:09:03;99733.22;;;3.03;59.80
73633;BME280;61927;50.080;14.418;2023-03-04T09:11:28;99727.84;;;3.08;59.95
73633;BME280;61927;50.080;14.418;2023-03-04T09:13:54;99718.00;;;3.16;59.82
73633;BME280;61927;50.080;14.418;2023-03-04T09:16:20;99730.94;;;3.22;59.95
73633;BME280;61927;50.080;14.418;2023-03-04T09:18:45;99728.94;;;3.32;59.65
73633;BME280;61927;50.080;14.418;2023-03-04T09:21:11;99724.19;;;3.44;59.04
73633;BME280;61927;50.080;14.418;2023-03-04T09:23:37;99726.09;;;3.39;59.17
73633;BME280;61927;50.080;14.418;2023-03-04T09:26:23;99721.56;;;3.44;59.06
73633;BME280;61927;50.080;14.418;2023-03-04T09:28:50;99722.31;;;3.49;58.21
73633;BME280;61927;50.080;14.418;2023-03-04T09:31:16;99725.75;;;3.51;58.49
73633;BME280;61927;50.080;14.418;2023-03-04T09:33:42;99722.09;;;3.57;57.83
73633;BME280;61927;50.080;14.418;2023-03-04T09:36:12;99709.69;;;3.62;58.16
73633;BME280;61927;50.080;14.418;2023-03-04T09:38:38;99714.00;;;3.65;57.75
73633;BME280;61927;50.080;14.418;2023-03-04T09:41:25;99717.59;;;3.61;57.50
73633;BME280;61927;50.080;14.418;2023-03-04T09:43:53;99715.16;;;3.54;56.98
73633;BME280;61927;50.080;14.418;2023-03-04T09:46:38;99716.09;;;3.52;57.79
73633;BME280;61927;50.080;14.418;2023-03-04T09:49:06;99718.78;;;3.50;58.17
73633;BME280;61927;50.080;14.418;2023-03-04T09:51:42;99711.63;;;3.55;57.75
73633;BME280;61927;50.080;14.418;2023-03-04T09:54:20;99703.75;;;3.55;57.66
73633;BME280;61927;50.080;14.418;2023-03-04T09:56:50;99702.81;;;3.58;57.04
73633;BME280;61927;50.080;14.418;2023-03-04T09:59:34;99702.69;;;3.63;57.11
73633;BME280;61927;50.080;14.418;2023-03-04T10:02:20;99693.72;;;3.70;57.02
73633;BME280;61927;50.080;14.418;2023-03-04T10:04:50;99704.03;;;3.76;56.36
73633;BME280;61927;50.080;14.418;2023-03-04T10:07:23;99703.94;;;3.79;56.33
73633;BME280;61927;50.080;14.418;2023-03-04T10:12:31;99697.97;;;4.02;55.91
73633;BME280;61927;50.080;14.418;2023-03-04T10:15:02;99686.63;;;4.01;56.25
73633;BME280;61927;50.080;14.418;2023-03-04T10:17:37;99685.81;;;3.99;56.28
73633;BME280;61927;50.080;14.418;2023-03-04T10:20:23;99685.56;;;4.07;56.50
73633;BME280;61927;50.080;14.418;2023-03-04T10:22:55;99687.09;;;4.14;56.30
73633;BME280;61927;50.080;14.418;2023-03-04T10:25:27;99679.00;;;4.20;56.05
73633;BME280;61927;50.080;14.418;2023-03-04T10:27:56;99679.06;;;4.18;55.77
73633;BME280;61927;50.080;14.418;2023-03-04T10:32:54;99677.91;;;4.27;55.65
73633;BME280;61927;50.080;14.418;2023-03-04T10:35:22;99674.28;;;4.31;55.25
73633;BME280;61927;50.080;14.418;2023-03-04T10:37:50;99664.63;;;4.32;55.13
73633;BME280;61927;50.080;14.418;2023-03-04T10:40:25;99662.66;;;4.38;55.66
73633;BME280;61927;50.080;14.418;2023-03-04T10:42:52;99661.78;;;4.38;55.65
73633;BME280;61927;50.080;14.418;2023-03-04T10:45:24;99653.97;;;4.36;55.38
73633;BME280;61927;50.080;14.418;2023-03-04T10:47:52;99659.91;;;4.41;55.76
73633;BME280;61927;50.080;14.418;2023-03-04T10:50:25;99652.78;;;4.45;55.27
73633;BME280;61927;50.080;14.418;2023-03-04T10:52:51;99647.34;;;4.51;55.44
73633;BME280;61927;50.080;14.418;2023-03-04T10:55:41;99651.06;;;4.44;55.89
73633;BME280;61927;50.080;14.418;2023-03-04T10:58:12;99644.66;;;4.52;56.02
73633;BME280;61927;50.080;14.418;2023-03-04T11:00:40;99645.25;;;4.61;55.26
73633;BME280;61927;50.080;14.418;2023-03-04T11:03:28;99643.00;;;4.75;54.59
73633;BME280;61927;50.080;14.418;2023-03-04T11:06:20;99636.81;;;4.76;54.31
73633;BME280;61927;50.080;14.418;2023-03-04T11:08:54;99626.41;;;4.73;55.08
73633;BME280;61927;50.080;14.418;2023-03-04T11:14:34;99618.56;;;4.96;53.87
73633;BME280;61927;50.080;14.418;2023-03-04T11:17:01;99611.09;;;5.09;53.99
73633;BME280;61927;50.080;14.418;2023-03-04T11:19:34;99615.44;;;5.10;53.66
73633;BME280;61927;50.080;14.418;2023-03-04T11:22:02;99616.47;;;5.06;53.85
73633;BME280;61927;50.080;14.418;2023-03-04T11:24:28;99608.28;;;5.13;53.98
73633;BME280;61927;50.080;14.418;2023-03-04T11:27:02;99605.88;;;5.31;53.73
73633;BME280;61927;50.080;14.418;2023-03-04T11:29:34;99593.28;;;5.39;53.68
73633;BME280;61927;50.080;14.418;2023-03-04T11:39:52;99601.41;;;5.33;53.21
73633;BME280;61927;50.080;14.418;2023-03-04T11:44:54;99600.63;;;5.31;53.57
73633;BME280;61927;50.080;14.418;2023-03-04T11:50:14;99592.31;;;5.41;53.38
73633;BME280;61927;50.080;14.418;2023-03-04T11:52:51;99580.41;;;5.55;52.41
73633;BME280;61927;50.080;14.418;2023-03-04T11:55:35;99576.47;;;5.65;52.51
73633;BME280;61927;50.080;14.418;2023-03-04T11:58:20;99576.34;;;5.68;52.00
73633;BME280;61927;50.080;14.418;2023-03-04T12:04:16;99562.56;;;5.83;52.53
73633;BME280;61927;50.080;14.418;2023-03-04T12:22:50;99539.66;;;6.07;51.86
73633;BME280;61927;50.080;14.418;2023-03-04T12:27:54;99531.03;;;6.24;51.79
73633;BME280;61927;50.080;14.418;2023-03-04T12:44:15;99530.38;;;5.98;52.64
73633;BME280;61927;50.080;14.418;2023-03-04T12:54:39;99522.88;;;6.09;52.24
73633;BME280;61927;50.080;14.418;2023-03-04T12:59:49;99527.47;;;6.04;52.71
73633;BME280;61927;50.080;14.418;2023-03-04T13:08:14;99532.09;;;5.99;52.13
73633;BME280;61927;50.080;14.418;2023-03-04T13:10:41;99523.75;;;5.88;52.40
73633;BME280;61927;50.080;14.418;2023-03-04T13:13:33;99523.81;;;5.87;52.83
73633;BME280;61927;50.080;14.418;2023-03-04T13:18:45;99521.22;;;5.85;53.00
73633;BME280;61927;50.080;14.418;2023-03-04T13:21:25;99520.56;;;5.80;53.81
73633;BME280;61927;50.080;14.418;2023-03-04T13:23:53;99513.97;;;5.70;53.77
73633;BME280;61927;50.080;14.418;2023-03-04T13:26:31;99514.88;;;5.69;54.07
73633;BME280;61927;50.080;14.418;2023-03-04T13:34:44;99521.38;;;5.60;54.03
73633;BME280;61927;50.080;14.418;2023-03-04T13:37:30;99513.31;;;5.43;55.09
73633;BME280;61927;50.080;14.418;2023-03-04T13:42:51;99513.56;;;5.59;54.54
73633;BME280;61927;50.080;14.418;2023-03-04T13:47:57;99502.66;;;5.68;54.09
73633;BME280;61927;50.080;14.418;2023-03-04T13:50:45;99507.06;;;5.67;54.93
73633;BME280;61927;50.080;14.418;2023-03-04T13:53:29;99504.25;;;5.50;55.08
73633;BME280;61927;50.080;14.418;2023-03-04T13:56:09;99511.97;;;5.33;55.55
73633;BME280;61927;50.080;14.418;2023-03-04T13:58:36;99500.22;;;5.41;55.00
73633;BME280;61927;50.080;14.418;2023-03-04T14:01:03;99497.53;;;5.43;54.71
73633;BME280;61927;50.080;14.418;2023-03-04T14:03:33;99485.22;;;5.43;55.16
73633;BME280;61927;50.080;14.418;2023-03-04T14:06:18;99489.63;;;5.43;55.95
73633;BME280;61927;50.080;14.418;2023-03-04T14:08:45;99496.84;;;5.60;55.38
73633;BME280;61927;50.080;14.418;2023-03-04T14:11:19;99490.09;;;5.74;55.07
73633;BME280;61927;50.080;14.418;2023-03-04T14:13:46;99490.63;;;5.82;54.79
73633;BME280;61927;50.080;14.418;2023-03-04T14:16:18;99487.84;;;5.65;54.84
73633;BME280;61927;50.080;14.418;2023-03-04T14:18:45;99490.97;;;5.53;54.78
73633;BME280;61927;50.080;14.418;2023-03-04T14:21:14;99489.13;;;5.55;54.92
73633;BME280;61927;50.080;14.418;2023-03-04T14:23:40;99489.91;;;5.57;54.96
73633;BME280;61927;50.080;14.418;2023-03-04T14:26:09;99483.19;;;5.50;55.85
73633;BME280;61927;50.080;14.418;2023-03-04T14:29:02;99486.25;;;5.61;55.00
73633;BME280;61927;50.080;14.418;2023-03-04T14:31:30;99481.84;;;5.62;54.89
73633;BME280;61927;50.080;14.418;2023-03-04T14:33:59;99488.88;;;5.61;54.23